createdAt,value
2022-10-11T00:00:36.690Z,4.13
2022-10-11T00:03:03.564Z,3.67
2022-10-11T00:05:30.327Z,5.18
2022-10-11T00:07:57.170Z,3.83
2022-10-11T00:10:23.915Z,4.50
2022-10-11T00:12:52.535Z,3.58
2022-10-11T00:15:21.492Z,2.83
2022-10-11T00:17:48.267Z,5.05
2022-10-11T00:20:15.016Z,3.05
2022-10-11T00:22:42.093Z,3.30
2022-10-11T00:25:09.749Z,3.67
2022-10-11T00:27:36.593Z,3.38
2022-10-11T00:30:04.708Z,3.75
2022-10-11T00:32:33.128Z,3.88
2022-10-11T00:35:04.662Z,3.10
2022-10-11T00:37:35.018Z,3.83
2022-10-11T00:40:01.930Z,3.42
2022-10-11T00:42:28.677Z,4.40
2022-10-11T00:45:27.233Z,2.95
2022-10-11T00:48:04.222Z,3.55
2022-10-11T00:50:33.269Z,3.40
2022-10-11T00:53:01.996Z,3.90
2022-10-11T00:55:31.303Z,3.33
2022-10-11T00:57:58.763Z,3.75
2022-10-11T01:00:25.445Z,6.28
2022-10-11T01:02:52.176Z,3.38
2022-10-11T01:05:29.248Z,4.95
2022-10-11T01:07:57.538Z,2.72
2022-10-11T01:10:24.239Z,3.20
2022-10-11T01:13:20.183Z,3.75
2022-10-11T01:16:01.881Z,2.75
2022-10-11T01:18:49.476Z,2.83
2022-10-11T01:21:39.694Z,3.47
2022-10-11T01:24:32.772Z,2.78
2022-10-11T01:27:13.425Z,4.55
2022-10-11T01:30:18.183Z,2.97
2022-10-11T01:32:50.687Z,3.75
2022-10-11T01:35:23.775Z,2.97
2022-10-11T01:37:56.012Z,2.55
2022-10-11T01:40:25.171Z,2.70
2022-10-11T01:42:51.842Z,2.90
2022-10-11T01:45:19.147Z,3.05
2022-10-11T01:47:46.070Z,2.67
2022-10-11T01:50:36.143Z,2.80
2022-10-11T01:53:17.898Z,2.47
2022-10-11T01:55:55.412Z,3.20
2022-10-11T01:58:31.858Z,2.75
2022-10-11T02:01:06.795Z,2.60
2022-10-11T02:03:48.211Z,3.33
2022-10-11T02:06:20.469Z,3.13
2022-10-11T02:08:59.167Z,3.00
2022-10-11T02:11:30.731Z,2.95
2022-10-11T02:14:06.156Z,2.95
2022-10-11T02:16:38.500Z,3.45
2022-10-11T02:19:05.556Z,3.38
2022-10-11T02:21:33.265Z,3.22
2022-10-11T02:24:16.660Z,2.83
2022-10-11T02:26:44.027Z,2.92
2022-10-11T02:29:11.031Z,3.45
2022-10-11T02:31:37.768Z,3.15
2022-10-11T02:34:17.842Z,3.17
2022-10-11T02:36:54.925Z,4.05
2022-10-11T02:39:28.514Z,2.80
2022-10-11T02:41:56.397Z,4.25
2022-10-11T02:44:59.703Z,2.90
2022-10-11T02:47:28.191Z,2.60
2022-10-11T02:49:54.999Z,3.17
2022-10-11T02:52:21.702Z,3.22
2022-10-11T02:54:48.388Z,4.13
2022-10-11T02:57:15.124Z,3.70
2022-10-11T02:59:41.829Z,3.67
2022-10-11T03:02:08.635Z,4.45
2022-10-11T03:04:35.332Z,3.85
2022-10-11T03:07:01.990Z,3.50
2022-10-11T03:09:28.635Z,4.22
2022-10-11T03:11:55.279Z,3.53
2022-10-11T03:14:21.919Z,3.22
2022-10-11T03:16:48.747Z,3.70
2022-10-11T03:19:19.116Z,3.72
2022-10-11T03:21:46.302Z,4.57
2022-10-11T03:24:12.974Z,3.03
2022-10-11T03:26:39.709Z,3.72
2022-10-11T03:29:06.379Z,3.65
2022-10-11T03:31:33.030Z,3.60
2022-10-11T03:33:59.765Z,3.53
2022-10-11T03:36:26.515Z,3.38
2022-10-11T03:38:53.233Z,3.10
2022-10-11T03:41:19.984Z,3.47
2022-10-11T03:43:46.733Z,3.97
2022-10-11T03:46:13.408Z,2.78
2022-10-11T03:48:40.159Z,3.10
2022-10-11T03:51:06.911Z,2.92
2022-10-11T03:53:33.601Z,2.50
2022-10-11T03:56:03.406Z,2.40
2022-10-11T03:58:32.634Z,3.38
2022-10-11T04:00:59.784Z,3.25
2022-10-11T04:03:26.806Z,2.60
2022-10-11T04:05:53.449Z,2.55
2022-10-11T04:08:20.139Z,3.78
2022-10-11T04:10:48.477Z,3.13
2022-10-11T04:13:15.278Z,5.03
2022-10-11T04:15:42.022Z,3.72
2022-10-11T04:18:09.018Z,2.60
2022-10-11T04:20:35.816Z,2.72
2022-10-11T04:23:02.505Z,5.05
2022-10-11T04:25:29.179Z,2.80
2022-10-11T04:27:56.075Z,2.20
2022-10-11T04:30:22.927Z,3.42
2022-10-11T04:32:49.609Z,3.20
2022-10-11T04:35:16.390Z,3.28
2022-10-11T04:37:43.056Z,2.67
2022-10-11T04:40:10.468Z,3.70
2022-10-11T04:42:37.151Z,3.40
2022-10-11T04:45:04.072Z,2.92
2022-10-11T04:47:30.727Z,3.60
2022-10-11T04:49:57.699Z,3.20
2022-10-11T04:52:25.925Z,3.05
2022-10-11T04:54:52.774Z,2.60
2022-10-11T04:57:19.480Z,3.05
2022-10-11T04:59:49.973Z,4.03
2022-10-11T05:02:17.225Z,3.40
2022-10-11T05:04:43.977Z,3.40
2022-10-11T05:07:10.704Z,3.72
2022-10-11T05:09:37.558Z,3.20
2022-10-11T05:12:04.467Z,3.03
2022-10-11T05:14:31.202Z,3.28
2022-10-11T05:16:58.088Z,2.22
2022-10-11T05:19:24.770Z,2.45
2022-10-11T05:21:51.493Z,3.92
2022-10-11T05:24:18.337Z,2.92
2022-10-11T05:26:45.097Z,3.00
2022-10-11T05:29:11.749Z,5.70
2022-10-11T05:31:38.501Z,2.22
2022-10-11T05:34:05.286Z,3.35
2022-10-11T05:36:32.221Z,2.38
2022-10-11T05:38:58.928Z,3.25
2022-10-11T05:41:25.650Z,2.70
2022-10-11T05:43:52.472Z,2.55
2022-10-11T05:46:19.359Z,2.70
2022-10-11T05:48:46.100Z,3.20
2022-10-11T05:51:12.829Z,3.10
2022-10-11T05:53:39.603Z,2.70
2022-10-11T05:56:15.520Z,2.90
2022-10-11T05:58:42.227Z,3.50
2022-10-11T06:01:16.912Z,4.28
2022-10-11T06:03:43.666Z,2.92
2022-10-11T06:06:10.859Z,3.50
2022-10-11T06:08:37.854Z,4.13
2022-10-11T06:11:18.917Z,5.93
2022-10-11T06:13:45.669Z,3.08
2022-10-11T06:16:13.406Z,4.05
2022-10-11T06:18:40.218Z,4.70
2022-10-11T06:21:07.071Z,3.97
2022-10-11T06:23:33.939Z,3.95
2022-10-11T06:26:07.085Z,3.30
2022-10-11T06:28:35.158Z,3.10
2022-10-11T06:31:03.973Z,3.30
2022-10-11T06:33:30.979Z,3.15
2022-10-11T06:36:05.725Z,4.05
2022-10-11T06:38:32.676Z,2.95
2022-10-11T06:41:18.265Z,4.95
2022-10-11T06:43:45.376Z,3.10
2022-10-11T06:46:12.407Z,3.13
2022-10-11T06:48:43.604Z,2.60
2022-10-11T06:51:11.394Z,3.97
2022-10-11T06:53:38.322Z,2.70
2022-10-11T06:56:06.531Z,2.38
2022-10-11T06:58:33.751Z,2.88
2022-10-11T07:01:04.405Z,2.75
2022-10-11T07:03:31.325Z,3.90
2022-10-11T07:06:25.386Z,4.03
2022-10-11T07:08:52.320Z,3.10
2022-10-11T07:11:22.659Z,2.67
2022-10-11T07:14:09.572Z,3.00
2022-10-11T07:16:36.554Z,5.53
2022-10-11T07:19:04.477Z,3.25
2022-10-11T07:21:32.011Z,3.70
2022-10-11T07:23:59.107Z,3.20
2022-10-11T07:26:26.050Z,3.95
2022-10-11T07:28:52.852Z,3.50
2022-10-11T07:31:21.491Z,4.35
2022-10-11T07:33:48.187Z,3.40
2022-10-11T07:36:14.947Z,4.15
2022-10-11T07:38:42.956Z,4.00
2022-10-11T07:41:09.882Z,4.32
2022-10-11T07:43:37.258Z,4.00
2022-10-11T07:46:07.553Z,3.53
2022-10-11T07:48:35.341Z,4.57
2022-10-11T07:51:07.095Z,6.22
2022-10-11T07:53:39.143Z,4.85
2022-10-11T07:56:06.651Z,4.20
2022-10-11T07:58:33.661Z,4.47
2022-10-11T08:01:00.483Z,3.22
2022-10-11T08:03:27.299Z,2.95
2022-10-11T08:05:54.044Z,3.83
2022-10-11T08:08:20.760Z,3.58
2022-10-11T08:10:47.623Z,3.67
2022-10-11T08:13:14.557Z,3.92
2022-10-11T08:15:41.346Z,4.53
2022-10-11T08:18:08.079Z,5.10
2022-10-11T08:20:34.855Z,3.72
2022-10-11T08:23:01.590Z,4.63
2022-10-11T08:25:28.415Z,4.53
2022-10-11T08:27:55.241Z,3.70
2022-10-11T08:30:22.009Z,4.15
2022-10-11T08:32:48.972Z,3.35
2022-10-11T08:35:15.807Z,4.00
2022-10-11T08:37:42.710Z,4.68
2022-10-11T08:40:15.360Z,3.72
2022-10-11T08:42:49.114Z,4.93
2022-10-11T08:45:44.225Z,4.65
2022-10-11T08:48:35.511Z,4.80
2022-10-11T08:51:05.452Z,3.70
2022-10-11T08:53:56.942Z,3.67
2022-10-11T08:56:23.795Z,4.28
2022-10-11T08:59:05.764Z,3.80
2022-10-11T09:01:32.764Z,3.88
2022-10-11T09:04:00.263Z,4.55
2022-10-11T09:06:40.576Z,5.95
2022-10-11T09:09:42.830Z,5.32
2022-10-11T09:12:32.282Z,4.72
2022-10-11T09:15:29.062Z,4.60
2022-10-11T09:17:58.752Z,3.80
2022-10-11T09:20:40.553Z,3.92
2022-10-11T09:23:44.260Z,4.32
2022-10-11T09:26:21.135Z,3.88
2022-10-11T09:29:10.412Z,4.60
2022-10-11T09:31:37.229Z,4.25
2022-10-11T09:34:12.039Z,4.35
2022-10-11T09:36:51.251Z,3.53
2022-10-11T09:39:30.865Z,4.35
2022-10-11T09:42:01.839Z,5.35
2022-10-11T09:44:36.722Z,4.28
2022-10-11T09:47:04.530Z,5.35
2022-10-11T09:49:36.046Z,3.63
2022-10-11T09:52:03.455Z,3.53
2022-10-11T09:54:44.276Z,5.00
2022-10-11T09:57:24.654Z,4.22
2022-10-11T10:00:20.580Z,4.32
2022-10-11T10:02:48.985Z,4.30
2022-10-11T10:05:18.501Z,4.10
2022-10-11T10:08:04.061Z,4.15
2022-10-11T10:10:59.549Z,3.88
2022-10-11T10:13:43.916Z,3.47
2022-10-11T10:16:22.930Z,5.43
2022-10-11T10:18:50.825Z,3.78
2022-10-11T10:21:17.646Z,4.10
2022-10-11T10:23:44.373Z,4.28
2022-10-11T10:26:18.041Z,4.05
2022-10-11T10:29:07.996Z,4.47
2022-10-11T10:32:02.053Z,3.00
2022-10-11T10:34:32.019Z,4.43
2022-10-11T10:37:03.385Z,4.30
2022-10-11T10:39:42.035Z,5.55
2022-10-11T10:42:15.462Z,3.97
2022-10-11T10:44:42.696Z,3.65
2022-10-11T10:47:15.534Z,3.38
2022-10-11T10:49:54.701Z,3.90
2022-10-11T10:52:46.565Z,2.63
2022-10-11T10:55:26.874Z,3.38
2022-10-11T10:58:05.300Z,2.83
2022-10-11T11:00:42.700Z,3.45
2022-10-11T11:03:12.294Z,3.75
2022-10-11T11:05:46.095Z,2.78
2022-10-11T11:08:38.966Z,2.85
2022-10-11T11:11:32.452Z,3.58
2022-10-11T11:14:37.815Z,2.95
2022-10-11T11:17:19.717Z,3.20
2022-10-11T11:20:07.936Z,3.47
2022-10-11T11:23:07.575Z,2.63
2022-10-11T11:25:45.168Z,3.05
2022-10-11T11:28:15.150Z,2.60
2022-10-11T11:30:57.600Z,2.33
2022-10-11T11:33:39.871Z,4.28
2022-10-11T11:36:14.363Z,2.85
2022-10-11T11:38:41.013Z,2.53
2022-10-11T11:41:20.876Z,2.47
2022-10-11T11:43:55.179Z,2.90
2022-10-11T11:46:24.832Z,2.00
2022-10-11T11:48:51.570Z,2.50
2022-10-11T11:51:21.333Z,2.92
2022-10-11T11:53:51.443Z,2.42
2022-10-11T11:56:57.123Z,2.92
2022-10-11T11:59:31.395Z,2.75
2022-10-11T12:02:21.181Z,2.83
2022-10-11T12:04:48.504Z,3.45
2022-10-11T12:07:17.766Z,3.00
2022-10-11T12:09:51.475Z,3.65
2022-10-11T12:12:37.481Z,2.78
2022-10-11T12:15:10.248Z,2.17
2022-10-11T12:18:15.467Z,2.88
2022-10-11T12:20:42.382Z,2.33
2022-10-11T12:23:42.892Z,3.25
2022-10-11T12:26:36.734Z,2.60
2022-10-11T12:29:42.141Z,2.60
2022-10-11T12:32:11.085Z,2.40
2022-10-11T12:34:42.485Z,2.63
2022-10-11T12:37:18.764Z,2.80
2022-10-11T12:39:52.893Z,3.75
2022-10-11T12:42:35.840Z,3.00
2022-10-11T12:45:12.141Z,2.85
2022-10-11T12:47:39.160Z,2.42
2022-10-11T12:50:18.787Z,2.67
2022-10-11T12:52:55.367Z,3.85
2022-10-11T12:55:33.035Z,2.58
2022-10-11T12:58:18.112Z,2.83
2022-10-11T13:00:55.632Z,3.05
2022-10-11T13:03:41.853Z,2.95
2022-10-11T13:06:20.564Z,2.15
2022-10-11T13:09:13.601Z,3.03
2022-10-11T13:12:04.915Z,2.92
2022-10-11T13:14:36.445Z,2.78
2022-10-11T13:17:03.571Z,2.42
2022-10-11T13:19:31.873Z,2.95
2022-10-11T13:22:00.667Z,2.55
2022-10-11T13:24:28.003Z,2.20
2022-10-11T13:26:55.540Z,3.22
2022-10-11T13:29:40.955Z,3.03
2022-10-11T13:32:12.726Z,2.60
2022-10-11T13:34:40.942Z,3.23
2022-10-11T13:37:07.841Z,3.42
2022-10-11T13:39:36.427Z,2.90
2022-10-11T13:42:14.150Z,4.13
2022-10-11T13:44:41.359Z,3.63
2022-10-11T13:47:13.746Z,2.45
2022-10-11T13:49:40.444Z,2.30
2022-10-11T13:52:20.546Z,2.95
2022-10-11T13:54:53.377Z,1.88
2022-10-11T13:57:27.446Z,2.53
2022-10-11T13:59:54.349Z,2.40
2022-10-11T14:02:22.350Z,2.42
2022-10-11T14:04:49.868Z,2.22
2022-10-11T14:07:28.111Z,4.68
2022-10-11T14:09:54.888Z,2.85
2022-10-11T14:12:40.846Z,3.05
2022-10-11T14:15:23.775Z,2.50
2022-10-11T14:17:51.336Z,2.55
2022-10-11T14:20:22.816Z,2.63
2022-10-11T14:22:53.392Z,2.53
2022-10-11T14:25:23.130Z,2.83
2022-10-11T14:27:49.787Z,3.28
2022-10-11T14:30:27.558Z,3.47
2022-10-11T14:32:55.722Z,2.20
2022-10-11T14:35:27.433Z,2.20
2022-10-11T14:37:54.102Z,2.35
2022-10-11T14:40:23.568Z,2.38
2022-10-11T14:42:50.530Z,2.50
2022-10-11T14:45:17.687Z,2.55
2022-10-11T14:47:44.443Z,2.70
2022-10-11T14:50:28.838Z,2.60
2022-10-11T14:52:55.848Z,2.30
2022-10-11T14:55:22.755Z,2.55
2022-10-11T14:57:49.440Z,3.33
2022-10-11T15:00:20.842Z,2.78
2022-10-11T15:02:47.645Z,2.28
2022-10-11T15:05:14.520Z,2.40
2022-10-11T15:07:41.262Z,3.15
2022-10-11T15:10:19.804Z,2.25
2022-10-11T15:12:46.639Z,2.65
2022-10-11T15:15:19.841Z,2.75
2022-10-11T15:17:51.940Z,2.75
2022-10-11T15:20:27.691Z,3.20
2022-10-11T15:22:55.055Z,2.90
2022-10-11T15:25:23.398Z,2.70
2022-10-11T15:27:50.573Z,3.17
2022-10-11T15:30:25.648Z,2.65
2022-10-11T15:32:53.219Z,3.45
2022-10-11T15:35:20.572Z,2.47
2022-10-11T15:37:47.350Z,1.88
2022-10-11T15:40:24.328Z,2.25
2022-10-11T15:42:51.758Z,2.08
2022-10-11T15:45:19.082Z,2.10
2022-10-11T15:47:46.222Z,2.22
2022-10-11T15:50:33.881Z,1.70
2022-10-11T15:53:04.485Z,2.03
2022-10-11T15:55:32.230Z,2.78
2022-10-11T15:57:59.268Z,2.40
2022-10-11T16:00:26.222Z,2.65
2022-10-11T16:02:53.145Z,2.70
2022-10-11T16:05:21.531Z,2.13
2022-10-11T16:07:48.684Z,1.73
2022-10-11T16:10:15.605Z,2.10
2022-10-11T16:12:42.500Z,2.25
2022-10-11T16:15:09.716Z,2.45
2022-10-11T16:17:36.767Z,2.47
2022-10-11T16:20:06.820Z,2.63
2022-10-11T16:22:35.657Z,2.83
2022-10-11T16:25:02.638Z,2.70
2022-10-11T16:27:29.545Z,2.85
2022-10-11T16:29:56.397Z,2.30
2022-10-11T16:32:24.308Z,2.88
2022-10-11T16:34:54.059Z,2.47
2022-10-11T16:37:20.903Z,2.70
2022-10-11T16:39:47.638Z,3.00
2022-10-11T16:42:14.353Z,2.20
2022-10-11T16:44:41.264Z,2.80
2022-10-11T16:47:08.148Z,3.60
2022-10-11T16:49:35.015Z,3.83
2022-10-11T16:52:04.668Z,3.35
2022-10-11T16:54:31.571Z,3.15
2022-10-11T16:56:58.900Z,2.72
2022-10-11T16:59:25.687Z,2.67
2022-10-11T17:01:52.414Z,2.65
2022-10-11T17:04:19.229Z,3.20
2022-10-11T17:06:46.010Z,3.33
2022-10-11T17:09:12.997Z,2.83
2022-10-11T17:11:40.692Z,3.22
2022-10-11T17:14:07.771Z,3.20
2022-10-11T17:16:35.132Z,3.65
2022-10-11T17:19:01.973Z,3.40
2022-10-11T17:21:28.829Z,4.15
2022-10-11T17:23:55.609Z,3.10
2022-10-11T17:26:26.677Z,3.27
2022-10-11T17:28:54.810Z,2.83
2022-10-11T17:31:21.837Z,2.90
2022-10-11T17:33:48.654Z,5.85
2022-10-11T17:36:20.020Z,3.40
2022-10-11T17:38:47.266Z,3.28
2022-10-11T17:41:14.129Z,3.70
2022-10-11T17:43:40.941Z,2.70
2022-10-11T17:46:09.013Z,2.38
2022-10-11T17:48:36.704Z,3.15
2022-10-11T17:51:10.804Z,2.60
2022-10-11T17:53:37.857Z,2.65
2022-10-11T17:56:09.763Z,3.03
2022-10-11T17:58:36.611Z,3.58
2022-10-11T18:01:08.790Z,4.15
2022-10-11T18:03:35.980Z,7.93
2022-10-11T18:06:05.649Z,25.50
2022-10-11T18:08:39.208Z,43.15
2022-10-11T18:11:14.774Z,52.65
2022-10-11T18:13:45.806Z,44.60
2022-10-11T18:16:16.392Z,44.70
2022-10-11T18:18:43.381Z,45.45
2022-10-11T18:21:10.703Z,42.70
2022-10-11T18:23:38.333Z,35.50
2022-10-11T18:26:15.426Z,19.08
2022-10-11T18:28:42.565Z,19.10
2022-10-11T18:31:13.549Z,13.93
2022-10-11T18:33:40.900Z,12.40
2022-10-11T18:36:08.419Z,13.00
2022-10-11T18:38:35.440Z,12.10
2022-10-11T18:41:09.362Z,10.90
2022-10-11T18:43:36.366Z,9.93
2022-10-11T18:46:09.945Z,10.90
2022-10-11T18:48:36.708Z,9.68
2022-10-11T18:51:08.957Z,9.57
2022-10-11T18:53:37.604Z,9.15
2022-10-11T18:56:06.090Z,7.53
2022-10-11T18:58:36.771Z,6.72
2022-10-11T19:01:08.363Z,7.38
2022-10-11T19:03:35.564Z,7.95
2022-10-11T19:06:07.078Z,5.93
2022-10-11T19:08:34.197Z,7.55
2022-10-11T19:11:10.345Z,6.63
2022-10-11T19:13:37.183Z,5.60
2022-10-11T19:16:09.016Z,5.57
2022-10-11T19:18:40.416Z,5.30
2022-10-11T19:21:11.350Z,6.35
2022-10-11T19:23:42.503Z,5.28
2022-10-11T19:26:16.032Z,4.88
2022-10-11T19:28:43.248Z,4.78
2022-10-11T19:31:11.579Z,6.30
2022-10-11T19:33:38.428Z,5.15
2022-10-11T19:36:06.659Z,4.80
2022-10-11T19:38:34.154Z,4.75
2022-10-11T19:41:01.781Z,5.00
2022-10-11T19:43:28.477Z,4.90
2022-10-11T19:46:08.854Z,5.78
2022-10-11T19:48:39.099Z,4.20
2022-10-11T19:51:10.607Z,5.22
2022-10-11T19:53:37.532Z,5.35
2022-10-11T19:56:05.944Z,5.45
2022-10-11T19:58:32.851Z,5.07
2022-10-11T20:01:00.678Z,4.32
2022-10-11T20:03:27.519Z,4.47
2022-10-11T20:05:54.300Z,4.22
2022-10-11T20:08:21.409Z,5.60
2022-10-11T20:10:48.154Z,4.90
2022-10-11T20:13:14.967Z,5.68
2022-10-11T20:15:41.747Z,4.38
2022-10-11T20:18:08.623Z,4.50
2022-10-11T20:20:35.481Z,5.65
2022-10-11T20:23:02.161Z,4.68
2022-10-11T20:25:28.858Z,5.30
2022-10-11T20:27:55.639Z,4.45
2022-10-11T20:30:22.426Z,7.45
2022-10-11T20:32:49.235Z,4.93
2022-10-11T20:35:16.014Z,7.85
2022-10-11T20:37:42.755Z,4.82
2022-10-11T20:40:10.311Z,5.40
2022-10-11T20:42:37.601Z,4.72
2022-10-11T20:45:04.980Z,4.10
2022-10-11T20:47:32.143Z,4.22
2022-10-11T20:49:59.002Z,4.05
2022-10-11T20:52:25.901Z,7.18
2022-10-11T20:54:52.640Z,5.13
2022-10-11T20:57:19.372Z,5.47
2022-10-11T20:59:46.225Z,5.15
2022-10-11T21:02:16.663Z,5.00
2022-10-11T21:04:45.615Z,5.78
2022-10-11T21:07:12.374Z,5.05
2022-10-11T21:09:39.046Z,6.30
2022-10-11T21:12:06.147Z,5.07
2022-10-11T21:14:32.885Z,5.30
2022-10-11T21:16:59.579Z,6.30
2022-10-11T21:19:26.376Z,5.10
2022-10-11T21:21:53.934Z,5.07
2022-10-11T21:24:21.408Z,5.97
2022-10-11T21:26:48.170Z,5.40
2022-10-11T21:29:14.949Z,5.88
2022-10-11T21:31:41.703Z,5.22
2022-10-11T21:34:08.450Z,5.28
2022-10-11T21:36:35.327Z,5.30
2022-10-11T21:39:02.339Z,4.57
2022-10-11T21:41:30.164Z,5.43
2022-10-11T21:43:57.703Z,4.53
2022-10-11T21:49:16.056Z,4.50
2022-10-11T21:51:42.973Z,4.03
2022-10-11T21:54:09.854Z,4.72
2022-10-11T21:56:36.639Z,5.20
2022-10-11T21:59:06.513Z,4.75
2022-10-11T22:01:41.958Z,4.32
2022-10-11T22:04:09.012Z,4.05
2022-10-11T22:06:36.108Z,4.70
2022-10-11T22:09:03.817Z,4.63
2022-10-11T22:11:30.619Z,6.00
2022-10-11T22:13:57.437Z,3.80
2022-10-11T22:16:24.347Z,7.50
2022-10-11T22:18:53.334Z,3.63
2022-10-11T22:21:21.677Z,5.13
2022-10-11T22:23:49.578Z,3.80
2022-10-11T22:26:20.309Z,4.65
2022-10-11T22:28:47.040Z,4.28
2022-10-11T22:31:14.127Z,4.07
2022-10-11T22:33:41.913Z,3.67
2022-10-11T22:36:09.678Z,4.20
2022-10-11T22:38:37.079Z,4.93
2022-10-11T22:41:03.811Z,4.43
2022-10-11T22:43:30.513Z,4.85
2022-10-11T22:45:57.153Z,3.83
2022-10-11T22:48:23.852Z,4.47
2022-10-11T22:50:51.318Z,3.45
2022-10-11T22:53:18.092Z,3.75
2022-10-11T22:55:44.851Z,4.38
2022-10-11T22:58:11.568Z,4.22
2022-10-11T23:00:38.424Z,3.17
2022-10-11T23:03:07.139Z,3.67
2022-10-11T23:05:34.957Z,4.15
2022-10-11T23:08:01.850Z,5.55
2022-10-11T23:10:28.961Z,3.15
2022-10-11T23:12:55.615Z,3.90
2022-10-11T23:15:22.536Z,4.45
2022-10-11T23:17:49.311Z,3.22
2022-10-11T23:20:16.179Z,3.60
2022-10-11T23:22:42.936Z,4.93
2022-10-11T23:25:09.716Z,3.63
2022-10-11T23:27:36.470Z,3.30
2022-10-11T23:30:04.278Z,3.50
2022-10-11T23:32:30.995Z,4.13
2022-10-11T23:34:57.758Z,5.18
2022-10-11T23:37:24.477Z,3.90
2022-10-11T23:39:51.940Z,3.15
2022-10-11T23:42:18.684Z,3.90
2022-10-11T23:44:45.374Z,3.08
2022-10-11T23:47:12.059Z,3.47
2022-10-11T23:49:38.802Z,3.58
2022-10-11T23:52:05.657Z,3.72
2022-10-11T23:54:34.696Z,3.20
2022-10-11T23:57:01.372Z,3.80
2022-10-11T23:59:28.132Z,3.03
